NCAR-RAP Real-Time Weather Data

Output produced by METARs form (26 May 2022  08:21 UTC)
found at http://weather.rap.ucar.edu/surface/
 
KMOB 260756Z AUTO 14003KT 10SM SCT014 OVC024 23/21 A2997 RMK AO2 SLP144 T02280211
KMOB 260732Z AUTO 13006KT 10SM FEW012 BKN023 23/21 A2997 RMK AO2 T02280211
KMOB 260656Z AUTO 13006KT 10SM CLR 22/21 A2998 RMK AO2 SLP147 T02220211
KMOB 260612Z AUTO 14009KT 10SM SCT015 22/21 A2999 RMK AO2 T02220206
KMOB 260556Z AUTO 13013KT 10SM BKN015 23/21 A2999 RMK AO2 SLP153 60020 T02280206 10228 20217 402940211 53009
KMOB 260538Z AUTO 13014KT 10SM FEW009 BKN015 23/21 A3000 RMK AO2 T02280206
KMOB 260524Z AUTO 12014KT 10SM BKN011 BKN110 23/21 A2999 RMK AO2 T02280211
KMOB 260456Z AUTO 12010KT 10SM FEW009 FEW110 23/21 A2998 RMK AO2 SLP149 T02280211
KMOB 260441Z AUTO 12012KT 10SM SCT008 BKN110 23/21 A2996 RMK AO2 T02280211
KMOB 260403Z AUTO 11010G19KT 10SM BKN006 BKN120 23/21 A2996 RMK AO2 T02280211
KMOB 260356Z 10012KT 7SM SCT006 BKN025 BKN120 23/21 A2995 RMK AO2 RAE17 SLP138 P0001 T02280211
KMOB 260347Z 10014KT 7SM SCT007 SCT075 BKN100 23/21 A2995 RMK AO2 LTG DSNT E RAE17 CB DSNT E P0001 T02280211
KMOB 260256Z 11009KT 7SM RA SCT065 SCT080 OVC110 22/21 A2997 RMK AO2 RAE04B43 SLP145 CB DSNT NE-SE P0001 60019 T02220206 53006
KMOB 260156Z 11003KT 7SM RA SCT065 SCT080 OVC110 22/21 A2995 RMK AO2 LTG DSNT NE-SE TSB22E37 SLP140 CB DSNT NE-SE P0006 T02220206
KMOB 260143Z 07004KT 7SM VCTS -RA SCT065CB SCT080 OVC110 22/21 A2995 RMK AO2 LTG DSNT NE-SE TSB22E37 FRQ LTGICCG SE TS VC SE MOV NE CB DSNT ALQDS P0003 T02220206
KMOB 260128Z 09006KT 7SM -TSRA SCT065CB SCT080 OVC110 22/21 A2996 RMK AO2 LTG DSNT NE-S TSB22 FRQ LTGICCG SE TS SE MOV NE CB DSNT ALQDS P0002 T02220206
KMOB 260056Z 00000KT 6SM -RA BR SCT050 BKN075 OVC100 22/21 A2995 RMK AO2 LTG DSNT ALQDS TSE39 SLP139 CB DSNT ALQDS P0012 T02220206
KMOB 260045Z 00000KT 6SM VCTS -RA BR SCT050CB BKN075 OVC100 22/21 A2995 RMK AO2 LTG DSNT ALQDS TSE39 FRQ LTGICCG SW TS VC SW MOV NE CB DSNT ALQDS P0011 T02220206
KMOB 252356Z 29007KT 3SM +TSRA BR SCT010CB SCT023 BKN100 22/21 A2993 RMK AO2 PK WND 27026/2322 WSHFT 2311 LTG DSNT N AND NE RAB22 TSB32 SLP132 FRQ LTGICCG SW TS SW MOV NE CB DSNT N AND NE P0021 60022 T02170206 10294 20
KMOB 252338Z COR 29009G18KT 6SM TSRA BR SCT010CB SCT023 BKN100 22/21 A2994 RMK AO2 PK WND 27026/2322 WSHFT 2311 LTG DSNT NE AND SW AND NW RAB22 TSB32 FRQ LTGICCG SW TS SW MOV NE CB DSNT NE AND SW AND NW P0006 T02220206
KMOB 252331Z 25007G26KT 7SM VCTS +RA SCT023CB SCT050 BKN250 22/21 A2995 RMK AO2 PK WND 27026/2322 WSHFT 2311 LTG DSNT SW-N RAB22 FRQ LTGICCG SW TS VC SW MOV NE CB DSNT SW-N P0003 T02220206
KMOB 252315Z 24013G25KT 7SM VCTS SCT023CB SCT050 BKN250 28/23 A2993 RMK AO2 LTG DSNT SW-NW FRQ LTGICCG SW TS VC SW MOV NE CB DSNT SW-NW T02780228
KMOB 252256Z 17013G18KT 7SM SCT023 SCT050 BKN250 28/23 A2993 RMK AO2 LTG DSNT SW-N SLP130 CB DSNT SW-N T02780228
KMOB 252156Z 16016G23KT 7SM SCT025 SCT050 BKN250 28/23 A2992 RMK AO2 LTG DSNT W RAB11E20 SLP129 CB DSNT W P0000 T02830228
KMOB 252056Z 16014G24KT 7SM SCT026 SCT090 BKN250 28/22 A2993 RMK AO2 PK WND 15028/2007 SLP132 60001 T02830222 56008
KMOB 251956Z 17016G25KT 7SM SCT029 BKN042 BKN250 29/22 A2994 RMK AO2 PK WND 18029/1935 LTG DSNT N RAE01 SLP134 CB DSNT N P0000 T02890217
KMOB 251856Z 14014KT 7SM -RA BKN020 BKN048 BKN250 27/24 A2994 RMK AO2 PK WND 15027/1819 RAB32 SLP137 CB DSNT N P0001 T02720239
KMOB 251836Z 15013KT 7SM -RA BKN020 BKN050 BKN250 28/23 A2995 RMK AO2 PK WND 15027/1819 RAB32 CB DSNT N P0000 T02830233
KMOB 251806Z 14018G25KT 7SM SCT019 BKN070 BKN250 28/23 A2995 RMK AO2 LTG DSNT N CB DSNT N T02830233
KMOB 251756Z 14014G23KT 7SM BKN019 BKN041 BKN200 28/23 A2996 RMK AO2 LTG DSNT N SLP140 CB DSNT N 60010 T02780233 10283 20217 58003
KMOB 251738Z 14015G22KT 7SM BKN019 BKN033 BKN200 28/23 A2996 RMK AO2 LTG DSNT N CB DSNT ALQDS T02780233 $
KMOB 251656Z 13017G23KT 7SM VCTS SCT009 BKN015CB OVC030 26/23 A2996 RMK AO2 PK WND 11028/1609 LTG DSNT W-NE RAB01E44 SLP141 FRQ LTGICCG W-N TS VC W-N MOV NE CB DSNT ALQDS P0009 T02610228 $
KMOB 251649Z 14011G20KT 5SM VCTS BR SCT009 BKN015CB OVC030 26/24 A2996 RMK AO2 PK WND 11028/1609 LTG DSNT W-NE RAB01E44 FRQ LTGICCG W-N TS VC W-N MOV NE CB DSNT W-N P0009 T02610239 $
KMOB 251637Z 15011G19KT 4SM VCTS -RA BR BKN009 BKN016CB OVC035 25/23 A2996 RMK AO2 PK WND 11028/1609 LTG DSNT W-N RAB01 FRQ LTGICCG W-N TS VC W-N MOV NE CB DSNT W-N P0009 T02500233 $
KMOB 251606Z 10010G20KT 3SM +RA BR OVC008 24/23 A2996 RMK AO2 LTG DSNT W RAB01 VIS N 1 CB DSNT W-NW P0006 T02440228
KMOB 251602Z 11013KT 1SM RA OVC008 25/22 A2997 RMK AO2 LTG DSNT W RAB01 CB DSNT W-NW P0000 T02500222
KMOB 251556Z 10013KT 7SM OVC008 26/23 A2997 RMK AO2 LTG DSNT W SLP144 CB DSNT W-NW T02610228
KMOB 251456Z 12010KT 7SM BKN009 BKN020 OVC150 25/23 A2997 RMK AO2 SLP143 60001 T02500228 50003
KMOB 251449Z 12010KT 7SM BKN009 BKN020 OVC150 25/22 A2997 RMK AO2 T02500222
KMOB 251444Z 11011KT 6SM HZ SCT008 BKN016 OVC150 25/22 A2996 RMK AO2 T02500222
KMOB 251437Z 11010KT 7SM SCT008 SCT035 BKN090 24/22 A2996 RMK AO2 T02440222
KMOB 251356Z 11009KT 6SM BR FEW020 SCT090 BKN200 23/21 A2997 RMK AO2 RAB1258E08 SLP146 P0000 T02280206
KMOB 251256Z 10006KT 5SM BR FEW005 SCT020 BKN090 22/20 A2996 RMK AO2 RAB22E35 SLP143 CB DSNT N-SE P0001 T02220200
KMOB 251156Z 11005KT 5SM BR FEW008 BKN050 OVC120 22/20 A2996 RMK AO2 LTG DSNT NE AND E RAE50 TSE04B12E48 SLP141 CB DSNT ALQDS P0002 60104 70138 T02170200 10228 20211 53003
KMOB 251149Z 10006KT 5SM VCTS -RA BR FEW008 BKN050CB OVC120 22/19 A2995 RMK AO2 LTG DSNT NE AND E TSE04B12E48 FRQ LTGICCG N-SE TS VC N-SE MOV NE CB DSNT ALQDS P0002 T02170194
KMOB 251117Z 10010KT 5SM -TSRA BR FEW008 SCT035CB OVC120 22/19 A2997 RMK AO2 LTG DSNT ALQDS TSE04B12 PRESRR FRQ LTGICCG ALQDS TS ALQDS MOV NE CB DSNT ALQDS P0000 T02170194
KMOB 251105Z 15006KT 5SM VCTS -RA BR FEW008 SCT036CB OVC110 22/19 A2994 RMK AO2 LTG DSNT ALQDS TSE04 FRQ LTGICCG ALQDS TS VC ALQDS MOV NE CB DSNT ALQDS P0000 T02170194
KMOB 251056Z 14006KT 5SM -TSRA BR SCT008 BKN036CB OVC110 22/20 A2993 RMK AO2 LTG DSNT N AND S AND SW TSB43 PRESFR SLP132 FRQ LTGICCG ALQDS TS ALQDS MOV NE CB DSNT ALQDS P0007 T02220200
KMOB 251046Z 14012KT 5SM TSRA BR SCT008 BKN036CB BKN110 22/20 A2996 RMK AO2 LTG DSNT N AND SW TSB43 FRQ LTGICCG ALQDS TS ALQDS MOV NE CB DSNT ALQDS P0006 T02220200
KMOB 251031Z AUTO 15008KT 7SM VCTS -RA FEW006 BKN045 OVC110 23/22 A2995 RMK AO2 LTG DSNT S AND SW P0005 T02280217
KMOB 250956Z AUTO 14007KT 7SM VCTS RA SCT026 BKN040 OVC090 22/21 A2994 RMK AO2 LTG DSNT S-NW SLP134 P0017 T02220211
KMOB 250926Z AUTO 15006KT 7SM VCTS RA FEW043 BKN070 OVC110 22/21 A2994 RMK AO2 LTG DSNT S-NW P0004 T02220206
KMOB 250856Z AUTO 12009KT 10SM -RA BKN075 BKN090 OVC110 22/21 A2995 RMK AO2 LTG DSNT W-N RAB00 TSB06E33 SLP137 P0013 60078 T02220206 55003
KMOB 250839Z AUTO 14009KT 10SM -RA SCT060 BKN090 OVC120 22/21 A2994 RMK AO2 LTG DSNT ALQDS RAB00 TSB06E33 P0012 T02220206
KMOB 250756Z AUTO 14004KT 10SM VCTS SCT075 BKN090 BKN110 22/21 A2993 RMK AO2 LTG DSNT ALQDS RAE33 SLP130 P0003 T02220206
KMOB 250714Z AUTO 00000KT 9SM -RA BKN100 BKN120 22/21 A2994 RMK AO2 LTG DSNT ALQDS P0002 T02220206
KMOB 250656Z AUTO 08003KT 5SM VCTS RA BR FEW080 BKN100 BKN120 22/20 A2995 RMK AO2 LTG DSNT ALQDS TSE46 SLP140 P0062 T02170200 $
KMOB 250652Z AUTO 07003KT 5SM VCTS RA BR BKN100 BKN120 22/20 A2995 RMK AO2 LTG DSNT ALQDS TSE46 P0061 $
KMOB 250626Z AUTO 19004KT 4SM +TSRA BR SCT029 BKN090 OVC110 21/19 A2996 RMK AO2 LTG DSNT ALQDS P0051 T02110194 $
KMOB 250618Z AUTO 16007KT 6SM TSRA BR FEW011 BKN029 OVC110 22/19 A2997 RMK AO2 LTG DSNT ALQDS P0048 T02170194 $
KMOB 250611Z AUTO 12006KT 2 1/2SM TSRA BR FEW013 BKN030 OVC110 21/19 A2997 RMK AO2 LTG DSNT ALQDS P0046 T02110194 $
KMOB 250607Z AUTO 11008G28KT 1SM +TSRA BR FEW011 BKN024 OVC075 21/19 A2997 RMK AO2 LTG DSNT ALQDS P0045 T02110194 $
KMOB 250602Z AUTO 16007G44KT 3/4SM +TSRA BR BKN011 BKN020 OVC031 21/19 A2998 RMK AO2 LTG DSNT ALQDS P0022 T02110194 $
KMOB 250558Z AUTO 19023G44KT 1 1/2SM +TSRA BR SCT011 BKN018 OVC031 22/19 A3000 RMK AO2 PK WND 20038/0557 VIS 1/2V4 LTG DSNT ALQDS PRESRR P0001 T02170194 $
KMOB 250556Z AUTO 19022G44KT 2 1/2SM +TSRA BR BKN011 BKN025 OVC034 22/19 A2999 RMK AO2 PK WND 21044/0553 VIS 1 1/4V5 LTG DSNT ALQDS RAB13 TSB14E29B45 PRESRR SLP153 P0014 60021 T02170194 10267 20217 402940211 53014 $
KMOB 250551Z AUTO 4SM TSRA BR BKN013 BKN021 OVC041 25/23 A2997 RMK AO2 LTG DSNT S-NW RAB13 TSB14E29B45 PRESRR P0008 $
KMOB 250535Z AUTO 14003KT 8SM VCTS RA OVC013 25/23 A2995 RMK AO2 LTG DSNT S-W RAB13 TSB14E29 P0005 T02500233 $
KMOB 250520Z AUTO 11007KT 7SM -TSRA OVC012 25/23 A2995 RMK AO2 LTG DSNT S-W RAB13 TSB14 P0001 T02500233 $
KMOB 250459Z AUTO 13006KT 10SM VCTS OVC014 26/23 A2996 RMK AO2 LTG DSNT ALQDS T02560233 $
KMOB 250456Z AUTO 12009KT 10SM SCT014 BKN019 BKN060 26/23 A2996 RMK AO2 LTG DSNT ALQDS RAB22E56 SLP141 CB DSNT SW-NW P0006 T02560233 $
KMOB 250356Z 11011KT 10SM BKN016 BKN030 OVC070 26/23 A2995 RMK AO2 LTG DSNT SW-NW RAE07 SLP139 CB DSNT SW-NW P0000 T02560233 $
KMOB 250256Z 11007KT 9SM -RA SCT015 BKN027 OVC060 26/23 A2995 RMK AO2 LTG DSNT SW RAB06E17B41 SLP138 CB DSNT SW P0001 60001 T02560233 51004 $
KMOB 250214Z 13008KT 10SM -RA SCT015 BKN028 OVC065 26/23 A2995 RMK AO2 RAB06 P0000 T02560233 $
KMOB 250156Z 14007KT 10SM SCT017 BKN041 26/23 A2995 RMK AO2 LTG DSNT NW RAB40E49 SLP138 CB DSNT NW P0000 T02560233 $
KMOB 250056Z 14008KT 10SM FEW016 SCT024 BKN030 26/23 A2994 RMK AO2 LTG DSNT W AND NW RAE2359 SLP136 CB DSNT W AND NW P0000 T02610233 $
KMOB 242356Z 14013G20KT 7SM -RA FEW018 SCT040 26/24 A2994 RMK AO2 LTG DSNT W RAB47 SLP135 CB DSNT W P0007 60010 T02610239 10294 20261 53002 $
KMOB 242256Z 15012KT 10SM FEW020 SCT032 28/23 A2993 RMK AO2 SLP132 T02830233 $
KMOB 242156Z 14013G23KT 10SM FEW019 BKN035 28/23 A2992 RMK AO2 RAE2059B28E39 SLP130 P0001 T02830233 $
KMOB 242056Z 14014KT 9SM RA SCT019 BKN044 28/24 A2993 RMK AO2 LTG DSNT N RAB41 SLP132 P0000 60002 T02780239 56016 $
KMOB 241956Z 14016G27KT 9SM FEW019 SCT029 29/22 A2994 RMK AO2 PK WND 12027/1945 LTG DSNT N AND NW RAE1859B23E32 SLP135 CB DSNT N AND NW P0000 T02940222
KMOB 241856Z 15010KT 7SM -RA SCT019 BKN050 BKN100 29/24 A2996 RMK AO2 LTG DSNT N AND NW RAB10 SLP141 CB DSNT W-N P0002 T02890239
KMOB 241756Z 12012KT 7SM SCT028 BKN047 BKN065 28/24 A2998 RMK AO2 LTG DSNT N RAB23E39 TSB19E44 SLP149 CB DSNT ALQDS P0002 60003 T02780239 10289 20233 58003 $
KMOB 241738Z 13008KT 5SM -TSRA SCT019CB BKN055 BKN150 26/22 A2999 RMK AO2 LTG DSNT NW-E RAB23 TSB19 FRQ LTGICCG NW-E TS NW-E MOV NE CB DSNT ALQDS P0002 T02610222 $
KMOB 241728Z 15013G25KT 3SM TSRA BKN019CB BKN050 BKN150 26/21 A3000 RMK AO2 LTG DSNT NW-E RAB23 TSB19 FRQ LTGICCG NW-NE TS NW-NE MOV NE CB DSNT ALQDS P0001 T02560206 $
KMOB 241723Z COR 13020G25KT 2SM TSRA BKN019CB BKN050 BKN150 28/23 A3000 RMK AO2 LTG DSNT NW-E RAB23 TSB19 FRQ LTGICCG NW-NE TS NW-NE MOV NE CB DSNT NW-E P0000 T02780228
KMOB 241656Z 14014KT 7SM BKN021 BKN038 BKN150 28/23 A3000 RMK AO2 LTG DSNT NW-NE TSB22E44 SLP154 CB DSNT NW-NE T02780233
KMOB 241646Z 13013KT 7SM BKN021 BKN038 BKN150 28/23 A2999 RMK AO2 LTG DSNT NW-NE TSB22E44 CB DSNT NW-NE T02830233
KMOB 241624Z 15013KT 7SM TS BKN021CB BKN038 BKN150 28/23 A2999 RMK AO2 LTG DSNT NW-NE TSB22 FRQ LTGICCG ALQDS TS ALQDS MOV NE CB DSNT ALQDS T02780228
KMOB 241556Z 14013KT 7SM BKN019 BKN043 BKN100 29/23 A2999 RMK AO2 LTG DSNT W AND NW RAB1457E08 SLP153 CB DSNT ALQDS P0001 T02890228
KMOB 241546Z 15012KT 7SM BKN019 BKN043 BKN100 29/23 A2999 RMK AO2 LTG DSNT NW RAB1457E08 CB DSNT ALQDS P0001 T02890233
KMOB 241506Z 14010KT 9SM -RA SCT013 BKN031 OVC090 27/24 A3000 RMK AO2 RAB1457 P0001 T02720239
KMOB 241456Z 15011G18KT 7SM SCT008 BKN025 OVC100 28/24 A2999 RMK AO2 RAB39E51 SLP152 P0000 60000 T02780239 51003
KMOB 241358Z 12009KT 6SM HZ BKN008 BKN030 OVC150 26/23 A2999 RMK AO2 T02560228
KMOB 241356Z 11009KT 7SM SCT015 BKN030 BKN150 26/23 A2999 RMK AO2 SLP151 T02560228
KMOB 241330Z 10007KT 7SM SCT015 BKN030 BKN150 24/22 A2999 RMK AO2 T02440222
KMOB 241256Z 07006KT 7SM BKN017 BKN029 BKN150 23/21 A2999 RMK AO2 LTG DSNT NE SLP152 CB DSNT N-E T02330211
KMOB 241239Z 08005KT 7SM BKN017 BKN032 BKN150 23/20 A2999 RMK AO2 LTG DSNT NE CB DSNT ALQDS T02280200
KMOB 241220Z 12004KT 5SM VCTS BR SCT019CB BKN050 BKN150 22/20 A2998 RMK AO2 LTG DSNT NE AND E AND SW FRQ LTGICCG N-E-SW TS VC N-E-SW MOV NE CB DSNT ALQDS T02220200
KMOB 241201Z 10005KT 5SM BR SCT028 BKN050 BKN090 22/21 A2998 RMK AO2 CB DSNT ALQDS T02220211
KMOB 241156Z 11004KT 5SM VCTS BR SCT028CB BKN050 BKN090 22/21 A2998 RMK AO2 RAB02E37 TSB13E40 SLP150 FRQ LTGICCG N-E TS VC N-E MOV NE CB DSNT ALQDS P0008 60064 70133 T02170206 10222 20211 53002
KMOB 241146Z 14005KT 3SM VCTS BR BKN028CB BKN043 BKN070 22/21 A2998 RMK AO2 LTG DSNT N RAB02E37 TSB13E40 FRQ LTGICCG N-E TS VC N-E MOV NE CB DSNT ALQDS P0008 T02220211
KMOB 241114Z 13005KT 3SM +TSRA BR BKN017CB BKN034 OVC070 22/22 A2998 RMK AO2 LTG DSNT E AND SW RAB02 TSB13 FRQ LTGICCG ALQDS TS ALQDS MOV NE CB DSNT ALQDS P0006 T02170217 $
KMOB 241056Z 09004KT 5SM VCTS BR BKN017CB OVC039 22/21 A2997 RMK AO2 LTG DSNT E-SW SLP147 FRQ LTGICCG E-SW TS VC E-SW MOV NE CB DSNT ALQDS T02170211 $
KMOB 241042Z 08004KT 5SM VCTS BR SCT017CB BKN044 22/21 A2998 RMK AO2 LTG DSNT E AND S FRQ LTGICCG NE-S TS VC NE-S MOV NE CB DSNT NE-S T02170211 $
KMOB 240956Z AUTO 00000KT 10SM FEW036 22/22 A2997 RMK AO2 LTG DSNT SE RAE21 TSE21 SLP147 P0001 T02220217 $
KMOB 240927Z AUTO 08004KT 10SM FEW013 SCT036 SCT060 22/22 A2998 RMK AO2 RAE21 TSE21 P0001 T02220217 $
KMOB 240911Z AUTO 09007KT 10SM -TSRA FEW004 BKN039 OVC070 22/21 A2997 RMK AO2 P0001 T02220211 $
KMOB 240901Z AUTO 12004KT 3SM -TSRA BR FEW004 BKN025 OVC048 22/21 A2998 RMK AO2 P0000 T02170206 $
KMOB 240856Z AUTO VRB04KT 1 1/4SM +TSRA BR FEW005 BKN023 OVC075 22/21 A2998 RMK AO2 RAE12B34 TSB39 SLP149 P0037 60055 T02170211 55012 $
KMOB 240849Z AUTO VRB03KT 2SM +TSRA BR FEW005 BKN028 OVC090 22/21 A2998 RMK AO2 VIS 1/2V5 RAE12B34 TSB39 P0011 T02170206 $
KMOB 240845Z AUTO 00000KT 3SM TSRA BR SCT033 BKN075 22/21 A2998 RMK AO2 RAE12B34 TSB39 P0010 T02170206 $
KMOB 240834Z AUTO 12005KT 5SM VCTS RA BR FEW029 SCT070 BKN085 22/20 A2998 RMK AO2 RAE12B34 P0001 T02170200 $